Time;durP1;ratioP1;P1;durP2;ratioP2;P2;SDS_P1;SDS_P2;PMS_P1;PMS_P2;Temp;Humidity;BMP_temperature;BMP_pressure;BME280_temperature;BME280_humidity;BME280_pressure;Samples;Min_cycle;Max_cycle;Signal;HPM_P1;HPM_P2
2021/10/13 00:01:45;;;;;;;5.07;2.07;;;9.60;99.90;;;;;;5012142;28;20289;-49
2021/10/13 00:04:12;;;;;;;4.23;2.17;;;9.50;99.90;;;;;;5017058;28;20620;-49
2021/10/13 00:06:39;;;;;;;4.33;2.33;;;9.50;99.90;;;;;;5019394;28;20204;-50
2021/10/13 00:09:06;;;;;;;3.90;1.80;;;9.60;99.90;;;;;;5014059;28;20210;-49
2021/10/13 00:11:34;;;;;;;5.53;1.90;;;9.70;99.90;;;;;;5012932;28;20298;-49
2021/10/13 00:14:01;;;;;;;6.10;2.27;;;9.70;99.90;;;;;;5016824;28;20203;-49
2021/10/13 00:16:30;;;;;;;4.60;2.10;;;9.60;99.90;;;;;;5017358;28;20348;-49
2021/10/13 00:18:58;;;;;;;6.03;2.50;;;9.70;99.90;;;;;;5010734;28;20203;-49
2021/10/13 00:21:25;;;;;;;6.43;2.03;;;9.50;99.90;;;;;;5018626;28;20288;-49
2021/10/13 00:23:52;;;;;;;5.17;2.17;;;9.30;99.90;;;;;;5013656;28;20289;-49
2021/10/13 00:26:19;;;;;;;3.63;2.00;;;9.20;99.90;;;;;;5014275;28;20195;-49
2021/10/13 00:28:45;;;;;;;6.00;2.40;;;9.30;99.90;;;;;;5014704;28;20212;-49
2021/10/13 00:31:12;;;;;;;6.63;2.30;;;9.30;99.90;;;;;;5010567;28;20266;-48
2021/10/13 00:33:39;;;;;;;5.07;2.10;;;9.50;99.90;;;;;;5016659;28;20303;-48
2021/10/13 00:36:06;;;;;;;4.03;1.87;;;9.20;99.90;;;;;;5018073;28;20219;-48
2021/10/13 00:38:33;;;;;;;5.50;2.10;;;9.20;99.90;;;;;;5020107;28;20199;-48
2021/10/13 00:41:00;;;;;;;6.00;1.83;;;9.30;99.90;;;;;;5013278;28;20211;-48
2021/10/13 00:43:26;;;;;;;5.03;2.20;;;9.40;99.90;;;;;;5011928;28;20617;-49
2021/10/13 00:45:55;;;;;;;3.00;1.90;;;9.50;99.90;;;;;;5009158;28;20238;-51
2021/10/13 00:48:22;;;;;;;6.53;2.00;;;9.50;99.90;;;;;;5012014;28;20201;-48
2021/10/13 00:50:49;;;;;;;3.77;1.83;;;9.40;99.90;;;;;;5009570;28;20230;-48
2021/10/13 00:53:16;;;;;;;6.20;1.90;;;9.40;99.90;;;;;;5013995;28;20206;-49
2021/10/13 00:55:45;;;;;;;4.17;2.00;;;9.40;99.90;;;;;;5009804;28;20209;-49
2021/10/13 00:58:12;;;;;;;4.20;2.60;;;9.10;99.90;;;;;;5014436;28;20265;-49
2021/10/13 01:00:46;;;;;;;11.23;2.07;;;8.80;99.90;;;;;;5019196;28;20585;-49
2021/10/13 01:03:41;;;;;;;4.73;1.93;;;8.70;99.90;;;;;;5017979;28;20212;-48
2021/10/13 01:06:19;;;;;;;6.50;2.30;;;8.60;99.90;;;;;;5013575;28;20202;-48
2021/10/13 01:09:01;;;;;;;7.53;2.47;;;8.60;99.90;;;;;;5019834;28;20249;-48
2021/10/13 01:12:12;;;;;;;6.57;2.40;;;8.40;99.90;;;;;;5014274;28;20255;-48
2021/10/13 01:14:49;;;;;;;3.90;2.27;;;8.30;99.90;;;;;;4976975;28;20196;-48
2021/10/13 01:17:23;;;;;;;2.50;1.90;;;8.40;99.90;;;;;;5013735;28;20230;-48
2021/10/13 01:19:53;;;;;;;3.63;2.27;;;8.50;99.90;;;;;;5017860;28;20262;-48
2021/10/13 01:22:58;;;;;;;4.20;2.60;;;8.50;99.90;;;;;;5017450;28;20192;-48
2021/10/13 01:25:48;;;;;;;6.67;2.20;;;8.40;99.90;;;;;;5017525;28;20206;-48
2021/10/13 01:28:20;;;;;;;2.70;2.20;;;8.40;99.90;;;;;;4992608;28;20207;-48
2021/10/13 01:30:58;;;;;;;4.40;2.40;;;8.30;99.90;;;;;;5010976;28;20204;-48
2021/10/13 01:33:37;;;;;;;4.80;1.90;;;8.30;99.90;;;;;;5012309;28;20220;-48
2021/10/13 01:36:11;;;;;;;5.47;2.50;;;8.10;99.90;;;;;;5009274;28;20262;-49
2021/10/13 01:38:43;;;;;;;4.17;2.43;;;8.10;99.90;;;;;;5011609;28;20199;-48
2021/10/13 01:41:12;;;;;;;3.53;1.83;;;8.30;99.90;;;;;;5010471;28;20218;-48
2021/10/13 01:43:43;;;;;;;6.33;2.23;;;8.40;99.90;;;;;;5011730;28;20244;-48
2021/10/13 01:46:09;;;;;;;2.67;2.10;;;8.40;99.90;;;;;;5011327;28;20248;-48
2021/10/13 01:48:38;;;;;;;4.67;2.33;;;8.40;99.90;;;;;;5012091;28;20220;-48
2021/10/13 01:51:06;;;;;;;6.37;2.20;;;8.10;99.90;;;;;;5014099;28;20359;-49
2021/10/13 01:53:34;;;;;;;2.60;1.90;;;8.10;99.90;;;;;;5009749;28;20247;-48
2021/10/13 01:56:03;;;;;;;8.93;2.63;;;8.20;99.90;;;;;;5013307;28;20314;-48
2021/10/13 01:58:30;;;;;;;3.57;2.17;;;8.40;99.90;;;;;;5016282;28;20311;-48
2021/10/13 02:01:00;;;;;;;7.33;1.83;;;8.60;99.90;;;;;;5009662;28;20202;-48
2021/10/13 02:03:30;;;;;;;4.73;2.10;;;8.60;99.90;;;;;;5013650;28;20203;-48
2021/10/13 02:06:00;;;;;;;4.67;1.90;;;8.80;99.90;;;;;;5011455;28;20201;-48
2021/10/13 02:08:29;;;;;;;5.97;2.50;;;8.90;99.90;;;;;;5011850;28;20296;-48
2021/10/13 02:10:59;;;;;;;5.97;1.67;;;8.80;99.90;;;;;;5008890;28;20292;-47
2021/10/13 02:13:31;;;;;;;5.83;2.10;;;8.80;99.90;;;;;;5011252;28;20226;-48
2021/10/13 02:16:00;;;;;;;4.83;1.90;;;8.80;99.90;;;;;;5013874;28;20209;-48
2021/10/13 02:18:29;;;;;;;2.67;1.80;;;8.80;99.90;;;;;;5013631;28;20289;-48
2021/10/13 02:20:58;;;;;;;6.27;1.60;;;8.70;99.90;;;;;;5013513;28;20232;-49
2021/10/13 02:23:32;;;;;;;4.73;2.17;;;9.00;99.90;;;;;;5012624;28;20250;-48
2021/10/13 02:26:07;;;;;;;7.27;2.80;;;9.10;99.90;;;;;;5011085;28;20188;-49
2021/10/13 02:28:40;;;;;;;3.80;1.93;;;9.00;99.90;;;;;;5013261;28;20210;-48
2021/10/13 02:31:08;;;;;;;4.07;1.90;;;8.80;99.90;;;;;;5011992;28;20212;-48
2021/10/13 02:33:36;;;;;;;3.77;2.10;;;8.60;99.90;;;;;;5014449;28;20201;-48
2021/10/13 02:36:03;;;;;;;3.90;1.87;;;8.50;99.90;;;;;;5012880;28;20299;-49
2021/10/13 02:38:31;;;;;;;4.73;1.67;;;8.50;99.90;;;;;;5010709;28;20263;-48
2021/10/13 02:40:59;;;;;;;5.43;1.93;;;8.60;99.90;;;;;;5014527;28;20272;-48
2021/10/13 02:43:26;;;;;;;5.93;1.83;;;8.60;99.90;;;;;;5013917;28;20628;-48
2021/10/13 02:46:17;;;;;;;3.57;2.17;;;8.50;99.90;;;;;;5014052;28;20667;-48
2021/10/13 02:48:48;;;;;;;3.20;1.70;;;8.40;99.90;;;;;;5014247;28;20205;-48
2021/10/13 02:51:27;;;;;;;3.67;1.90;;;8.10;99.90;;;;;;5013683;28;20362;-48
2021/10/13 02:54:03;;;;;;;6.30;2.40;;;8.00;99.90;;;;;;5014595;28;20205;-48
2021/10/13 02:56:38;;;;;;;2.43;1.93;;;8.00;99.90;;;;;;5011299;28;20246;-48
2021/10/13 02:59:16;;;;;;;6.07;2.60;;;8.20;99.90;;;;;;5012308;28;20197;-48
2021/10/13 03:01:45;;;;;;;7.13;2.87;;;8.30;99.90;;;;;;5013170;28;20209;-49
2021/10/13 03:04:25;;;;;;;4.33;2.50;;;8.30;99.90;;;;;;5012425;28;20205;-49
2021/10/13 03:07:27;;;;;;;2.40;2.20;;;8.30;99.90;;;;;;5015993;28;20215;-49
2021/10/13 03:09:59;;;;;;;5.00;2.07;;;8.30;99.90;;;;;;5011678;28;20295;-49
2021/10/13 03:12:47;;;;;;;4.50;2.27;;;8.10;99.90;;;;;;5010260;28;20256;-49
2021/10/13 03:15:15;;;;;;;3.80;2.67;;;8.30;99.90;;;;;;5011550;28;20233;-49
2021/10/13 03:17:46;;;;;;;2.53;2.00;;;8.30;99.90;;;;;;5010917;28;20268;-48
2021/10/13 03:20:17;;;;;;;3.67;2.40;;;8.40;99.90;;;;;;5009328;28;20316;-48
2021/10/13 03:22:45;;;;;;;3.80;2.40;;;8.40;99.90;;;;;;5012956;28;20207;-49
2021/10/13 03:25:11;;;;;;;6.10;2.33;;;8.30;99.90;;;;;;5006292;28;20370;-48
2021/10/13 03:27:38;;;;;;;4.63;2.40;;;8.30;99.90;;;;;;5014286;28;20570;-48
2021/10/13 03:30:06;;;;;;;6.17;1.87;;;8.40;99.90;;;;;;5015741;28;20236;-48
2021/10/13 03:32:33;;;;;;;2.80;2.00;;;8.50;99.90;;;;;;5008053;28;21278;-48
2021/10/13 03:34:59;;;;;;;2.97;1.80;;;8.60;99.90;;;;;;5015927;28;20201;-49
2021/10/13 03:37:26;;;;;;;5.37;2.47;;;8.60;99.90;;;;;;5005306;28;20251;-48
2021/10/13 03:39:56;;;;;;;3.90;2.00;;;8.70;99.90;;;;;;5008798;28;21123;-48
2021/10/13 03:42:23;;;;;;;5.00;2.00;;;8.80;99.90;;;;;;5011633;28;20205;-48
2021/10/13 03:44:49;;;;;;;7.13;2.00;;;8.80;99.90;;;;;;5016343;28;20213;-48
2021/10/13 03:47:19;;;;;;;4.00;1.70;;;8.60;99.90;;;;;;5010622;28;20198;-48
2021/10/13 03:49:46;;;;;;;4.07;2.10;;;8.50;99.90;;;;;;5014466;28;20243;-48
2021/10/13 03:52:13;;;;;;;4.47;2.10;;;8.50;99.90;;;;;;5018691;28;20208;-49
2021/10/13 03:54:39;;;;;;;2.93;1.67;;;8.60;99.90;;;;;;5012404;28;20207;-49
2021/10/13 03:57:06;;;;;;;5.93;2.10;;;8.70;99.90;;;;;;5013112;28;20301;-48
2021/10/13 03:59:33;;;;;;;4.37;1.73;;;8.80;99.90;;;;;;5015991;28;20645;-48
2021/10/13 04:02:00;;;;;;;3.53;2.33;;;8.90;99.90;;;;;;5012094;28;20235;-49
2021/10/13 04:04:27;;;;;;;3.83;1.83;;;8.80;99.90;;;;;;5015237;28;20270;-48
2021/10/13 04:06:54;;;;;;;4.80;1.90;;;8.80;99.90;;;;;;5011171;28;20232;-48
2021/10/13 04:09:21;;;;;;;2.40;1.63;;;9.00;99.90;;;;;;5012723;28;20201;-49
2021/10/13 04:11:48;;;;;;;6.93;2.10;;;9.00;99.90;;;;;;5016767;28;20220;-48
2021/10/13 04:14:14;;;;;;;6.87;3.00;;;9.10;99.90;;;;;;5008450;28;20211;-48
2021/10/13 04:16:41;;;;;;;8.57;3.97;;;9.10;99.90;;;;;;5013550;28;20290;-48
2021/10/13 04:19:08;;;;;;;3.80;2.30;;;9.10;99.90;;;;;;5017993;28;20189;-48
2021/10/13 04:21:35;;;;;;;4.13;2.07;;;9.20;99.90;;;;;;5012792;28;20205;-50
2021/10/13 04:24:02;;;;;;;4.00;1.70;;;9.30;99.90;;;;;;5011009;28;20566;-48
2021/10/13 04:26:29;;;;;;;4.53;2.53;;;9.10;99.90;;;;;;5017167;28;20294;-48
2021/10/13 04:28:56;;;;;;;4.77;1.93;;;9.20;99.90;;;;;;5016448;28;20300;-48
2021/10/13 04:31:22;;;;;;;3.03;2.30;;;9.10;99.90;;;;;;5011425;28;20208;-49
2021/10/13 04:33:49;;;;;;;2.50;1.90;;;9.20;99.90;;;;;;5020997;28;20206;-49
2021/10/13 04:36:16;;;;;;;4.73;1.97;;;9.30;99.90;;;;;;5015829;28;20236;-48
2021/10/13 04:38:43;;;;;;;2.90;2.00;;;9.20;99.90;;;;;;5012439;28;20219;-49
2021/10/13 04:41:10;;;;;;;3.50;1.90;;;9.30;99.90;;;;;;5008831;28;20208;-48
2021/10/13 04:43:37;;;;;;;5.07;2.07;;;9.40;99.90;;;;;;5011539;28;20581;-48
2021/10/13 04:46:03;;;;;;;3.50;1.77;;;9.40;99.90;;;;;;5013039;28;20343;-48
2021/10/13 04:48:30;;;;;;;4.77;1.90;;;9.50;99.90;;;;;;5012872;28;20237;-49
2021/10/13 04:50:57;;;;;;;5.47;1.87;;;9.60;99.90;;;;;;5014884;28;20244;-49
2021/10/13 04:53:25;;;;;;;4.17;1.57;;;9.50;99.90;;;;;;5015631;28;20195;-49
2021/10/13 04:55:51;;;;;;;2.57;1.67;;;9.50;99.90;;;;;;5011747;28;20653;-48
2021/10/13 04:58:18;;;;;;;4.33;1.90;;;9.50;99.90;;;;;;5014042;28;20306;-49
2021/10/13 05:00:45;;;;;;;5.80;1.87;;;9.50;99.90;;;;;;5008423;28;20833;-49
2021/10/13 05:03:12;;;;;;;4.17;1.87;;;9.60;99.90;;;;;;5015076;28;20553;-49
2021/10/13 05:05:40;;;;;;;4.63;1.90;;;9.70;99.90;;;;;;5021589;28;20626;-48
2021/10/13 05:08:07;;;;;;;3.40;1.93;;;9.70;99.90;;;;;;5018880;28;20822;-49
2021/10/13 05:10:37;;;;;;;5.97;1.97;;;9.70;99.90;;;;;;5014426;28;20222;-48
2021/10/13 05:13:05;;;;;;;3.13;1.63;;;9.60;99.90;;;;;;5014186;28;20203;-48
2021/10/13 05:15:32;;;;;;;3.13;1.77;;;9.50;99.90;;;;;;5021147;28;20283;-49
2021/10/13 05:17:59;;;;;;;4.33;1.57;;;9.50;99.90;;;;;;5019008;28;20213;-48
2021/10/13 05:20:26;;;;;;;5.30;1.60;;;9.40;99.90;;;;;;5022082;28;20260;-49
2021/10/13 05:22:53;;;;;;;4.00;1.90;;;9.60;99.90;;;;;;5015913;28;20291;-48
2021/10/13 05:25:20;;;;;;;2.10;1.40;;;9.70;99.90;;;;;;5006628;28;20221;-49
2021/10/13 05:27:47;;;;;;;3.03;1.90;;;9.60;99.90;;;;;;5008091;28;20656;-48
2021/10/13 05:30:14;;;;;;;5.60;2.10;;;9.60;99.90;;;;;;5019286;28;20295;-49
2021/10/13 05:32:41;;;;;;;4.30;2.07;;;9.70;99.90;;;;;;5009355;28;20600;-48
2021/10/13 05:35:08;;;;;;;5.53;2.67;;;9.70;99.90;;;;;;5010662;28;20697;-49
2021/10/13 05:37:34;;;;;;;5.00;2.60;;;9.70;99.90;;;;;;5013602;28;20637;-48
2021/10/13 05:40:01;;;;;;;2.40;1.87;;;9.70;99.90;;;;;;5008412;28;20354;-48
2021/10/13 05:42:28;;;;;;;3.87;2.27;;;9.70;99.90;;;;;;5006371;28;20203;-49
2021/10/13 05:44:55;;;;;;;5.03;2.10;;;9.70;99.90;;;;;;5013466;28;20555;-48
2021/10/13 05:47:22;;;;;;;10.50;2.73;;;9.60;99.90;;;;;;5011059;28;20270;-48
2021/10/13 05:49:50;;;;;;;3.73;2.17;;;9.50;99.90;;;;;;5011398;28;20311;-48
2021/10/13 05:52:17;;;;;;;5.67;2.30;;;9.50;99.90;;;;;;5018037;28;20728;-48
2021/10/13 05:54:44;;;;;;;5.00;2.00;;;9.50;99.90;;;;;;5012626;28;20197;-48
2021/10/13 05:57:11;;;;;;;3.27;1.90;;;9.50;99.90;;;;;;5009144;28;20220;-49
2021/10/13 05:59:39;;;;;;;4.67;2.00;;;9.60;99.90;;;;;;5011544;28;20886;-49
2021/10/13 06:02:06;;;;;;;7.07;2.40;;;9.60;99.90;;;;;;5006287;28;20263;-48
2021/10/13 06:04:33;;;;;;;2.77;1.90;;;9.60;99.90;;;;;;5009954;28;20235;-47
2021/10/13 06:06:59;;;;;;;6.10;2.67;;;9.60;99.90;;;;;;5012799;28;20645;-49
2021/10/13 06:09:27;;;;;;;5.37;2.23;;;9.70;99.90;;;;;;5014033;28;20275;-49
2021/10/13 06:11:54;;;;;;;3.93;2.50;;;9.90;99.90;;;;;;5010231;28;20196;-48
2021/10/13 06:14:20;;;;;;;3.67;2.57;;;9.90;99.90;;;;;;5012162;28;20276;-49
2021/10/13 06:16:47;;;;;;;2.70;1.97;;;9.90;99.90;;;;;;5018537;28;20204;-49
2021/10/13 06:19:14;;;;;;;6.17;2.23;;;9.80;99.90;;;;;;5013872;28;20750;-49
2021/10/13 06:21:41;;;;;;;6.67;2.60;;;9.80;99.90;;;;;;5009207;28;20599;-49
2021/10/13 06:24:08;;;;;;;2.70;1.80;;;9.80;99.90;;;;;;5012491;28;20240;-48
2021/10/13 06:26:35;;;;;;;3.10;2.10;;;9.90;99.90;;;;;;5021105;28;20281;-48
2021/10/13 06:29:02;;;;;;;5.77;2.40;;;10.00;99.90;;;;;;5014294;28;20582;-49
2021/10/13 06:31:29;;;;;;;4.77;2.53;;;10.00;99.90;;;;;;5006788;28;20283;-49
2021/10/13 06:33:56;;;;;;;6.37;2.50;;;10.10;99.90;;;;;;5008706;28;20784;-51
2021/10/13 06:36:23;;;;;;;4.83;2.37;;;10.20;99.90;;;;;;5008342;28;20641;-49
2021/10/13 06:38:50;;;;;;;6.50;2.00;;;10.10;99.90;;;;;;5011242;28;20746;-51
2021/10/13 06:41:16;;;;;;;5.90;2.53;;;10.10;99.90;;;;;;5007053;28;20201;-49
2021/10/13 06:43:43;;;;;;;4.70;2.00;;;10.20;99.90;;;;;;5006291;28;20762;-49
2021/10/13 06:46:10;;;;;;;5.17;2.63;;;10.20;99.90;;;;;;5014125;28;20285;-50
2021/10/13 06:48:38;;;;;;;6.13;2.23;;;10.30;99.90;;;;;;5014090;28;20211;-49
2021/10/13 06:51:04;;;;;;;3.00;1.63;;;10.30;99.90;;;;;;5012790;28;20244;-49
2021/10/13 06:53:31;;;;;;;4.57;2.27;;;10.30;99.90;;;;;;5015307;28;20321;-49
2021/10/13 06:55:59;;;;;;;3.80;2.33;;;10.30;99.90;;;;;;5009158;28;20631;-49
2021/10/13 06:58:26;;;;;;;7.20;2.03;;;10.30;99.90;;;;;;5004026;28;20213;-49
2021/10/13 07:00:52;;;;;;;5.13;1.87;;;10.20;99.90;;;;;;5008128;28;20208;-49
2021/10/13 07:03:19;;;;;;;6.83;2.27;;;10.40;99.90;;;;;;5010203;28;20276;-49
2021/10/13 07:05:46;;;;;;;4.83;1.80;;;10.40;99.90;;;;;;5015552;28;20197;-49
2021/10/13 07:08:13;;;;;;;5.10;1.87;;;10.40;99.90;;;;;;5006215;28;20316;-49
2021/10/13 07:10:40;;;;;;;5.80;2.10;;;10.50;99.90;;;;;;5011232;28;20527;-49
2021/10/13 07:13:07;;;;;;;3.60;2.10;;;10.40;99.90;;;;;;5010246;28;20272;-49
2021/10/13 07:15:34;;;;;;;3.43;1.80;;;10.50;99.90;;;;;;5010279;28;20202;-49
2021/10/13 07:18:02;;;;;;;8.40;1.97;;;10.50;99.90;;;;;;5008235;28;20201;-49
2021/10/13 07:20:29;;;;;;;8.47;2.17;;;10.70;99.90;;;;;;5011696;28;20257;-49
2021/10/13 07:22:57;;;;;;;7.27;2.27;;;10.70;99.90;;;;;;5008098;28;20233;-49
2021/10/13 07:25:26;;;;;;;3.37;1.83;;;10.70;99.90;;;;;;5011352;28;20582;-49
2021/10/13 07:27:58;;;;;;;4.57;1.97;;;10.70;99.90;;;;;;5011003;28;20417;-48
2021/10/13 07:30:25;;;;;;;4.63;2.17;;;10.70;99.90;;;;;;5010085;28;20230;-49
2021/10/13 07:32:52;;;;;;;3.37;1.90;;;10.70;99.90;;;;;;5009137;28;20253;-50
2021/10/13 07:35:20;;;;;;;3.93;2.00;;;10.70;99.90;;;;;;5016587;28;20227;-49
2021/10/13 07:37:48;;;;;;;2.40;1.97;;;10.90;99.90;;;;;;5008006;28;20231;-49
2021/10/13 07:40:16;;;;;;;5.93;1.97;;;10.90;99.90;;;;;;5011875;28;20215;-49
2021/10/13 07:42:43;;;;;;;5.93;1.80;;;10.90;99.90;;;;;;5014375;28;20207;-50
2021/10/13 07:45:10;;;;;;;2.53;1.77;;;10.80;99.90;;;;;;5013921;28;20730;-49
2021/10/13 07:47:37;;;;;;;3.93;2.00;;;10.70;99.90;;;;;;5017944;28;20198;-49
2021/10/13 07:50:05;;;;;;;5.87;1.97;;;10.70;99.90;;;;;;5015215;28;20658;-49
2021/10/13 07:52:32;;;;;;;6.67;2.70;;;10.60;99.90;;;;;;5010577;28;20201;-49
2021/10/13 07:54:59;;;;;;;4.37;2.20;;;10.70;99.90;;;;;;5019708;28;20207;-49
2021/10/13 07:57:26;;;;;;;4.80;2.00;;;10.80;99.90;;;;;;5002628;28;20230;-49
2021/10/13 07:59:53;;;;;;;4.57;2.30;;;10.90;99.90;;;;;;5014051;28;20352;-49
2021/10/13 08:02:19;;;;;;;4.83;2.20;;;10.90;99.90;;;;;;5011387;28;20202;-49
2021/10/13 08:04:46;;;;;;;4.50;1.90;;;11.00;99.90;;;;;;5008382;28;20255;-49
2021/10/13 08:07:13;;;;;;;5.30;2.50;;;11.10;99.90;;;;;;5007971;28;20234;-49
2021/10/13 08:09:40;;;;;;;4.33;2.20;;;11.30;99.90;;;;;;5000461;28;20281;-49
2021/10/13 08:12:07;;;;;;;5.43;1.80;;;11.30;99.90;;;;;;5011037;28;20811;-49
2021/10/13 08:14:34;;;;;;;6.20;2.23;;;11.30;99.90;;;;;;5008534;28;20997;-49
2021/10/13 08:17:02;;;;;;;5.33;1.93;;;11.20;99.90;;;;;;5011794;28;20315;-49
2021/10/13 08:19:29;;;;;;;6.07;1.90;;;11.20;99.90;;;;;;5004858;28;20240;-49
2021/10/13 08:21:56;;;;;;;4.33;2.07;;;11.40;99.90;;;;;;5013703;28;20225;-50
2021/10/13 08:24:23;;;;;;;3.40;2.10;;;11.40;99.90;;;;;;5007997;28;20689;-48
2021/10/13 08:26:50;;;;;;;3.40;2.00;;;11.70;99.90;;;;;;5016836;28;20234;-49
2021/10/13 08:29:17;;;;;;;6.57;2.30;;;11.90;99.90;;;;;;5009622;28;20483;-49
2021/10/13 08:31:44;;;;;;;5.17;2.10;;;11.80;99.90;;;;;;5020218;28;20270;-50
2021/10/13 08:34:11;;;;;;;4.20;2.30;;;11.90;99.90;;;;;;5009076;28;20280;-50
2021/10/13 08:36:38;;;;;;;2.97;2.10;;;11.90;99.90;;;;;;5006142;28;20326;-49
2021/10/13 08:39:05;;;;;;;5.67;2.30;;;11.80;99.90;;;;;;5005457;28;20223;-50
2021/10/13 08:41:32;;;;;;;6.20;2.07;;;12.00;99.90;;;;;;5004895;28;20296;-50
2021/10/13 08:43:59;;;;;;;4.83;2.00;;;11.90;99.90;;;;;;5007774;28;20202;-50
2021/10/13 08:46:25;;;;;;;4.23;2.30;;;12.00;99.90;;;;;;5008508;28;20200;-49
2021/10/13 08:48:52;;;;;;;9.50;2.30;;;12.00;99.90;;;;;;5008334;28;20243;-50
2021/10/13 08:51:19;;;;;;;5.50;2.53;;;12.00;99.90;;;;;;5011845;28;20722;-50
2021/10/13 08:53:46;;;;;;;6.23;2.50;;;12.00;99.90;;;;;;5013048;28;20202;-50
2021/10/13 08:56:13;;;;;;;2.07;1.87;;;12.10;99.90;;;;;;5003730;28;20197;-50
2021/10/13 08:58:41;;;;;;;4.63;2.47;;;12.00;99.90;;;;;;5008718;28;20291;-50
2021/10/13 09:01:11;;;;;;;6.93;2.40;;;12.00;99.90;;;;;;5012962;28;20289;-50
2021/10/13 09:03:44;;;;;;;7.20;2.20;;;12.00;99.90;;;;;;5011805;28;20621;-50
2021/10/13 09:06:32;;;;;;;5.87;2.30;;;12.00;99.90;;;;;;5009562;28;20675;-50
2021/10/13 09:09:11;;;;;;;4.33;2.27;;;12.20;99.90;;;;;;5013544;28;20202;-50
2021/10/13 09:11:37;;;;;;;5.53;2.37;;;12.40;99.90;;;;;;5007632;28;20203;-50
2021/10/13 09:14:05;;;;;;;6.13;2.77;;;12.40;99.90;;;;;;5006743;28;20312;-50
2021/10/13 09:16:44;;;;;;;5.30;2.50;;;12.60;99.90;;;;;;5006182;28;20282;-50
2021/10/13 09:19:11;;;;;;;3.27;1.90;;;12.70;99.90;;;;;;5013669;28;20225;-51
2021/10/13 09:21:57;;;;;;;5.97;1.80;;;12.70;99.90;;;;;;5010384;28;20229;-50
2021/10/13 09:24:25;;;;;;;5.20;2.13;;;12.70;99.90;;;;;;5011494;28;20225;-49
2021/10/13 09:26:55;;;;;;;5.67;1.77;;;12.80;99.90;;;;;;5006067;28;20204;-50
2021/10/13 09:29:23;;;;;;;5.77;2.00;;;12.80;99.90;;;;;;5013302;28;20224;-51
2021/10/13 09:32:00;;;;;;;5.77;2.00;;;12.90;99.90;;;;;;5010489;28;20772;-50
2021/10/13 09:34:27;;;;;;;6.57;1.67;;;13.10;99.90;;;;;;5013211;28;20207;-50
2021/10/13 09:36:59;;;;;;;7.63;1.90;;;13.00;99.90;;;;;;5018828;28;20293;-50
2021/10/13 09:39:28;;;;;;;5.43;1.57;;;13.20;99.90;;;;;;5016821;28;20660;-49
2021/10/13 09:42:00;;;;;;;4.87;1.73;;;13.40;99.90;;;;;;5012455;28;20243;-50
2021/10/13 09:44:29;;;;;;;4.43;1.30;;;13.40;53.70;;;;;;5007527;28;20282;-50
2021/10/13 09:46:58;;;;;;;5.77;1.67;;;13.50;53.90;;;;;;5012569;28;20301;-50
2021/10/13 09:49:31;;;;;;;4.30;1.80;;;13.50;1.00;;;;;;5010468;28;20253;-50
2021/10/13 09:52:03;;;;;;;2.87;1.33;;;13.50;1.00;;;;;;5010009;28;20304;-50
2021/10/13 09:54:30;;;;;;;3.83;1.00;;;13.40;1.00;;;;;;5010040;28;20311;-50
2021/10/13 09:56:58;;;;;;;2.17;0.70;;;13.40;1.00;;;;;;5002164;28;20292;-50
2021/10/13 09:59:25;;;;;;;3.07;1.20;;;13.10;1.00;;;;;;5011379;28;20251;-50
2021/10/13 10:01:58;;;;;;;3.03;0.83;;;13.10;1.00;;;;;;5004942;28;20195;-50
2021/10/13 10:04:26;;;;;;;2.40;1.20;;;13.20;1.00;;;;;;5011791;28;20615;-50
2021/10/13 10:06:57;;;;;;;1.33;1.00;;;13.30;1.00;;;;;;5006741;28;20619;-50
2021/10/13 10:09:26;;;;;;;1.73;1.13;;;13.20;1.00;;;;;;5012413;28;20572;-50
2021/10/13 10:12:08;;;;;;;4.63;1.00;;;13.20;1.00;;;;;;5012299;28;20212;-50
2021/10/13 10:14:43;;;;;;;5.57;1.10;;;13.40;1.00;;;;;;5012436;28;20206;-50
2021/10/13 10:17:12;;;;;;;2.47;1.10;;;13.40;1.00;;;;;;5010031;28;20281;-51
2021/10/13 10:19:43;;;;;;;3.80;0.93;;;13.30;1.00;;;;;;5014428;28;20319;-50
2021/10/13 10:22:15;;;;;;;5.73;1.10;;;13.20;1.00;;;;;;5013256;28;20612;-49
2021/10/13 10:24:55;;;;;;;3.47;1.00;;;13.40;1.00;;;;;;5004731;28;22126;-50
2021/10/13 10:27:35;;;;;;;7.57;1.13;;;13.30;1.00;;;;;;5010234;28;20645;-50
2021/10/13 10:30:08;;;;;;;5.53;1.20;;;13.50;1.00;;;;;;5012104;28;20228;-49
2021/10/13 10:32:40;;;;;;;3.63;1.33;;;13.40;99.90;;;;;;5012548;28;20222;-49
2021/10/13 10:35:16;;;;;;;3.63;1.20;;;13.40;1.00;;;;;;5006880;28;20304;-48
2021/10/13 10:37:48;;;;;;;6.40;2.10;;;13.40;1.00;;;;;;5013906;28;20472;-48
2021/10/13 10:40:23;;;;;;;3.73;1.13;;;13.50;1.00;;;;;;5012120;28;20692;-49
2021/10/13 10:43:02;;;;;;;2.90;1.03;;;13.60;1.00;;;;;;5006876;28;20927;-50
2021/10/13 10:45:47;;;;;;;7.17;1.70;;;13.40;99.90;;;;;;5005445;28;20277;-49
2021/10/13 10:48:15;;;;;;;7.87;1.60;;;13.50;99.90;;;;;;5016710;28;20223;-49
2021/10/13 10:50:44;;;;;;;3.03;1.20;;;13.60;99.90;;;;;;5006532;28;20776;-48
2021/10/13 10:53:14;;;;;;;2.70;1.33;;;13.60;99.90;;;;;;5006742;28;20235;-51
2021/10/13 10:55:44;;;;;;;6.30;1.00;;;13.70;22.50;;;;;;5011875;28;20203;-49
2021/10/13 10:58:20;;;;;;;4.20;1.47;;;13.80;1.00;;;;;;5009992;28;20947;-49
2021/10/13 11:01:13;;;;;;;2.30;0.93;;;13.80;17.80;;;;;;5014056;28;20325;-49
2021/10/13 11:03:41;;;;;;;2.17;1.30;;;13.80;99.90;;;;;;5002853;28;20650;-49
2021/10/13 11:06:26;;;;;;;2.03;1.50;;;13.70;99.90;;;;;;5006125;28;20192;-50
2021/10/13 11:08:56;;;;;;;3.30;1.20;;;13.80;99.90;;;;;;5012785;28;20203;-51
2021/10/13 11:11:27;;;;;;;4.20;1.00;;;14.00;1.00;;;;;;5009641;28;20205;-50
2021/10/13 11:13:55;;;;;;;2.73;1.40;;;14.00;1.00;;;;;;5006692;28;20215;-50
2021/10/13 11:16:22;;;;;;;2.40;0.90;;;14.20;1.00;;;;;;5010551;28;20291;-50
2021/10/13 11:18:49;;;;;;;1.13;1.00;;;14.30;1.00;;;;;;5013510;28;20531;-50
2021/10/13 11:21:16;;;;;;;1.10;0.50;;;14.30;99.90;;;;;;5012885;28;20213;-50
2021/10/13 11:23:43;;;;;;;2.90;1.00;;;14.20;99.90;;;;;;5004545;28;20252;-50
2021/10/13 11:26:10;;;;;;;2.10;0.70;;;14.40;1.00;;;;;;5004131;28;20731;-50
2021/10/13 11:28:39;;;;;;;1.93;0.63;;;14.50;1.00;;;;;;5013838;28;20202;-50
2021/10/13 11:31:08;;;;;;;1.47;0.37;;;14.50;1.00;;;;;;5007965;28;20691;-50
2021/10/13 11:33:36;;;;;;;2.77;0.63;;;14.60;1.00;;;;;;5010455;28;20540;-50
2021/10/13 11:36:07;;;;;;;1.30;0.50;;;14.70;1.00;;;;;;5012480;28;20262;-50
2021/10/13 11:38:36;;;;;;;1.97;0.60;;;14.60;99.90;;;;;;5006536;28;20201;-50
2021/10/13 11:41:09;;;;;;;1.67;0.70;;;14.80;55.50;;;;;;5009907;28;20737;-56
2021/10/13 11:43:37;;;;;;;0.93;0.60;;;14.80;1.00;;;;;;5008876;28;20346;-56
2021/10/13 11:46:05;;;;;;;2.20;0.70;;;14.80;1.00;;;;;;5011365;28;20207;-51
2021/10/13 11:48:34;;;;;;;2.47;0.80;;;14.80;99.90;;;;;;5014798;28;20215;-50
2021/10/13 11:51:08;;;;;;;1.83;0.47;;;14.90;99.90;;;;;;5007932;28;20387;-50
2021/10/13 11:53:35;;;;;;;2.37;0.70;;;14.90;99.90;;;;;;5012188;28;20296;-50
2021/10/13 11:56:12;;;;;;;1.57;0.73;;;15.10;1.00;;;;;;5006599;28;20251;-50
2021/10/13 11:58:40;;;;;;;3.90;0.90;;;14.90;1.00;;;;;;5001804;28;20226;-50
2021/10/13 12:01:14;;;;;;;3.60;1.03;;;15.10;99.90;;;;;;5012013;28;20643;-50
2021/10/13 12:03:41;;;;;;;4.57;0.60;;;14.90;98.10;;;;;;5018201;28;20208;-50
2021/10/13 12:06:08;;;;;;;5.70;0.77;;;14.90;99.90;;;;;;5015796;28;20525;-50
2021/10/13 12:08:38;;;;;;;2.53;0.70;;;14.90;1.00;;;;;;5010224;28;20235;-51
2021/10/13 12:11:06;;;;;;;5.67;3.07;;;14.90;99.90;;;;;;5018107;28;20515;-50
2021/10/13 12:13:41;;;;;;;5.20;2.07;;;15.00;1.00;;;;;;5009584;28;20210;-50
2021/10/13 12:16:28;;;;;;;6.03;2.33;;;14.80;1.00;;;;;;5010250;28;20742;-50
2021/10/13 12:18:58;;;;;;;2.63;0.83;;;14.90;99.90;;;;;;5010538;28;20660;-50
2021/10/13 12:21:29;;;;;;;1.97;0.80;;;14.90;1.00;;;;;;5013309;28;20294;-50
2021/10/13 12:24:07;;;;;;;1.37;0.80;;;14.90;1.00;;;;;;5017424;28;20199;-49
2021/10/13 12:26:42;;;;;;;3.33;0.83;;;14.80;1.00;;;;;;5009503;28;20193;-50
2021/10/13 12:29:11;;;;;;;5.73;0.60;;;14.60;99.90;;;;;;5012770;28;20239;-50
2021/10/13 12:31:39;;;;;;;3.73;0.70;;;14.50;1.00;;;;;;5006220;28;20308;-50
2021/10/13 12:34:16;;;;;;;3.67;1.10;;;14.50;1.00;;;;;;5017624;23;20238;-81
2021/10/13 12:36:52;;;;;;;2.37;0.80;;;14.60;1.00;;;;;;5033643;28;20212;-81
2021/10/13 12:39:25;;;;;;;2.00;0.93;;;14.60;1.00;;;;;;5037604;28;20250;-81
2021/10/13 12:42:05;;;;;;;1.53;0.67;;;14.70;1.00;;;;;;5028166;28;20193;-82
2021/10/13 12:44:32;;;;;;;2.83;0.70;;;14.70;99.90;;;;;;5027433;28;20224;-81
2021/10/13 12:47:10;;;;;;;3.17;0.80;;;14.60;1.00;;;;;;5026986;28;20216;-81
2021/10/13 12:49:39;;;;;;;3.40;1.00;;;14.50;1.00;;;;;;5044635;22;20232;-49
2021/10/13 12:52:12;;;;;;;2.10;1.00;;;14.50;1.00;;;;;;5012917;28;21655;-51
2021/10/13 12:54:42;;;;;;;3.90;0.90;;;14.40;1.00;;;;;;5019940;28;20188;-48
2021/10/13 12:57:12;;;;;;;5.03;0.80;;;14.50;1.00;;;;;;5019598;28;20326;-49
2021/10/13 12:59:39;;;;;;;5.23;0.80;;;14.50;99.90;;;;;;5023290;28;20267;-48
2021/10/13 13:02:06;;;;;;;1.00;0.70;;;14.50;99.90;;;;;;5022842;28;20275;-49
2021/10/13 13:04:33;;;;;;;3.43;0.70;;;14.50;1.00;;;;;;5024489;28;20203;-51
2021/10/13 13:07:01;;;;;;;2.83;0.90;;;14.40;99.90;;;;;;5019757;28;20197;-48